Hlavní strana
METAR-TAF:

METAR-TAF

Letiště :

Letiště Ankara-Esenboğa

Ankara Esenboğa, Turecko

zeměpisná šířka: 40-07N, zeměpisná délka: 032-59E, výška: 953 m

Aktuální stav počasí

Zpráva byla vytvořena před 22 minutami, v 01:20 UTC
Bezvětří
Teplota -4°C
Vlhkost vzduchu 80%
Tlak 1016 hPa
Viditelnost 10 km a více
Žádná oblačnost pod 1500 m, nevyskytují se cumulonimby.

METAR: LTAC 260120Z 00000KT CAVOK M04/M07 Q1016 NOSIG RMK RWY21L 01003KT 330V030 RWY03L 36001KT RWY21R 00000KT

Čas: 04:42 (01:42 UTC)

Předpověď počasí

Zpráva byla vytvořena před 3 hodinami a 2 minutami, v 22:40 UTC
Předpověď platná od 26 v 00 UTC do 26 v 24 UTC
vítr z různých směrů 2 kt
Viditelnost 10 km a více
Žádná oblačnost pod 1500 m, nevyskytují se cumulonimby.
Změna
od 26 v 06 UTC do 26 v 09 UTC
Skoro jasno ve výšce 4000 ft
Změna
od 26 v 12 UTC do 26 v 14 UTC
Viditelnost 10 km a více
Žádná oblačnost pod 1500 m, nevyskytují se cumulonimby.

TAF: LTAC 252240Z 2600/2624 VRB02KT CAVOK BECMG 2606/2609 FEW040 BECMG 2612/2614 CAVOK

Stav a předpovědi počasí z více než 4 000 letišť (zprávy METAR a TAF).

Červené a žluté tečky na mapě představují dostupné meteorologické stanice.

Když kurzor umístíte na tečku, zobrazí se název stanice.

Pak kliknutím zobrazíte stav a předpověď počasí.

Chcete-li změnit mapu, kliknutím na zelené tlačítko se znaménkem +mapu přiblížíte, kliknutím na zelené tlačítko se znaménkem – mapu oddálíte a kliknutím na zelené šipky přejdete na sousední mapy.


METAR-TAF: